Time;durP1;ratioP1;P1;durP2;ratioP2;P2;SDS_P1;SDS_P2;PMS_P1;PMS_P2;Temp;Humidity;BMP_temperature;BMP_pressure;BME280_temperature;BME280_humidity;BME280_pressure;Samples;Min_cycle;Max_cycle;Signal;HPM_P1;HPM_P2
2022/06/30 00:01:31;;;;;;;5.40;4.80;;;21.30;99.90;;;;;;4912989;29;20048;-73
2022/06/30 00:03:56;;;;;;;6.32;4.55;;;21.30;99.90;;;;;;4911155;29;20107;-73
2022/06/30 00:06:22;;;;;;;5.25;4.05;;;21.30;99.90;;;;;;4916979;29;20075;-73
2022/06/30 00:08:48;;;;;;;4.90;4.47;;;21.30;99.90;;;;;;4904259;29;20150;-73
2022/06/30 00:11:14;;;;;;;5.18;4.28;;;21.30;99.90;;;;;;4902611;29;20060;-72
2022/06/30 00:13:41;;;;;;;5.75;3.75;;;21.20;99.90;;;;;;4909547;29;20085;-75
2022/06/30 00:16:07;;;;;;;4.68;4.20;;;21.20;99.90;;;;;;4905624;29;20052;-75
2022/06/30 00:18:34;;;;;;;7.00;4.22;;;21.20;99.90;;;;;;4911572;29;20392;-75
2022/06/30 00:21:00;;;;;;;4.95;4.07;;;21.10;99.90;;;;;;4917407;28;20150;-72
2022/06/30 00:23:26;;;;;;;4.60;4.18;;;21.10;99.90;;;;;;4905107;29;20079;-75
2022/06/30 00:25:52;;;;;;;4.00;3.70;;;21.00;99.90;;;;;;4914148;29;20068;-72
2022/06/30 00:28:19;;;;;;;4.70;4.30;;;20.90;99.90;;;;;;4912091;29;20059;-72
2022/06/30 00:30:49;;;;;;;5.43;4.45;;;20.80;99.90;;;;;;4919600;29;20051;-75
2022/06/30 00:33:15;;;;;;;4.90;4.43;;;20.60;99.90;;;;;;4905465;29;20052;-73
2022/06/30 00:35:41;;;;;;;6.45;4.38;;;20.50;99.90;;;;;;4900201;29;20056;-72
2022/06/30 00:38:08;;;;;;;5.40;4.25;;;20.50;99.90;;;;;;4904320;29;20052;-72
2022/06/30 00:40:42;;;;;;;5.35;4.85;;;20.40;99.90;;;;;;4920709;29;20547;-72
2022/06/30 00:43:08;;;;;;;12.93;4.65;;;20.30;99.90;;;;;;4913180;29;20047;-72
2022/06/30 00:45:41;;;;;;;5.03;4.28;;;20.20;99.90;;;;;;4910914;29;20123;-73
2022/06/30 00:48:07;;;;;;;4.95;4.55;;;20.20;99.90;;;;;;4912609;29;20055;-74
2022/06/30 00:50:32;;;;;;;6.13;4.68;;;20.20;99.90;;;;;;4915777;29;20115;-73
2022/06/30 00:53:01;;;;;;;7.85;5.03;;;20.10;99.90;;;;;;4917996;29;20052;-73
2022/06/30 00:55:27;;;;;;;7.00;5.45;;;20.10;99.90;;;;;;4921886;29;20138;-74
2022/06/30 00:57:56;;;;;;;6.60;4.97;;;20.10;99.90;;;;;;4915177;29;20064;-72
2022/06/30 01:00:23;;;;;;;6.57;4.90;;;20.10;99.90;;;;;;4910841;29;20842;-74
2022/06/30 01:02:51;;;;;;;6.22;5.07;;;20.00;99.90;;;;;;4915969;29;20054;-74
2022/06/30 01:05:17;;;;;;;5.00;4.60;;;20.00;99.90;;;;;;4915942;29;20582;-73
2022/06/30 01:07:43;;;;;;;5.30;4.80;;;19.90;99.90;;;;;;4910981;29;20048;-75
2022/06/30 01:12:53;;;;;;;5.78;4.97;;;19.90;99.90;;;;;;4918898;29;20846;-72
2022/06/30 01:15:20;;;;;;;5.18;4.78;;;19.90;99.90;;;;;;4915754;29;20047;-73
2022/06/30 01:17:49;;;;;;;6.45;5.18;;;19.80;99.90;;;;;;4924611;29;20570;-72
2022/06/30 01:20:16;;;;;;;6.72;5.43;;;19.80;99.90;;;;;;4931186;28;20123;-72
2022/06/30 01:22:42;;;;;;;6.05;4.70;;;19.80;99.90;;;;;;4918651;29;20056;-72
2022/06/30 01:25:09;;;;;;;5.35;4.80;;;19.80;99.90;;;;;;4923549;29;20051;-72
2022/06/30 01:27:35;;;;;;;5.35;4.50;;;19.70;99.90;;;;;;4923407;28;20071;-72
2022/06/30 01:30:02;;;;;;;6.18;5.35;;;19.70;99.90;;;;;;4920666;28;20511;-72
2022/06/30 01:32:29;;;;;;;6.18;4.63;;;19.70;99.90;;;;;;4919976;29;20058;-74
2022/06/30 01:34:56;;;;;;;6.53;4.90;;;19.70;99.90;;;;;;4915988;29;20410;-74
2022/06/30 01:37:23;;;;;;;5.03;4.53;;;19.70;99.90;;;;;;4906930;29;20135;-73
2022/06/30 01:39:48;;;;;;;4.95;4.45;;;19.70;99.90;;;;;;4910755;29;20123;-72
2022/06/30 01:42:14;;;;;;;5.78;4.82;;;19.70;99.90;;;;;;4914348;29;20052;-72
2022/06/30 01:44:40;;;;;;;4.93;4.43;;;19.70;99.90;;;;;;4916045;29;20182;-72
2022/06/30 01:47:06;;;;;;;5.93;4.88;;;19.70;99.90;;;;;;4915576;29;20043;-74
2022/06/30 01:49:32;;;;;;;6.13;5.28;;;19.70;99.90;;;;;;4909261;29;20488;-72
2022/06/30 01:51:57;;;;;;;6.47;4.85;;;19.70;99.90;;;;;;4914085;29;20507;-73
2022/06/30 01:54:23;;;;;;;5.45;4.45;;;19.70;99.90;;;;;;4934081;28;20053;-72
2022/06/30 01:56:49;;;;;;;6.65;5.13;;;19.70;99.90;;;;;;4919785;28;20062;-73
2022/06/30 01:59:15;;;;;;;6.63;4.60;;;19.70;99.90;;;;;;4917843;29;20048;-72
2022/06/30 02:01:41;;;;;;;5.35;4.78;;;19.70;99.90;;;;;;4911984;29;20048;-72
2022/06/30 02:06:51;;;;;;;4.82;4.28;;;19.50;99.90;;;;;;4916319;29;20052;-72
2022/06/30 02:09:17;;;;;;;4.85;4.35;;;19.50;99.90;;;;;;4935049;28;20055;-72
2022/06/30 02:11:43;;;;;;;5.20;4.38;;;19.50;99.90;;;;;;4920614;29;20046;-74
2022/06/30 02:14:09;;;;;;;7.60;5.53;;;19.40;99.90;;;;;;4922607;29;20779;-72
2022/06/30 02:16:35;;;;;;;8.38;5.18;;;19.40;99.90;;;;;;4917979;29;20052;-75
2022/06/30 02:19:01;;;;;;;4.95;4.53;;;19.40;99.90;;;;;;4918279;28;20048;-72
2022/06/30 02:21:27;;;;;;;5.32;4.82;;;19.30;99.90;;;;;;4918773;29;20043;-74
2022/06/30 02:23:52;;;;;;;6.72;4.95;;;19.20;99.90;;;;;;4920455;28;20448;-73
2022/06/30 02:26:19;;;;;;;6.15;5.43;;;19.20;99.90;;;;;;4916402;29;20071;-72
2022/06/30 02:28:44;;;;;;;5.10;4.70;;;19.10;99.90;;;;;;4922176;29;20055;-72
2022/06/30 02:31:12;;;;;;;4.75;4.32;;;19.00;99.90;;;;;;4921522;29;20051;-73
2022/06/30 02:33:41;;;;;;;5.25;4.25;;;19.00;99.90;;;;;;4920687;29;20070;-72
2022/06/30 02:36:07;;;;;;;7.30;5.03;;;19.00;99.90;;;;;;4928926;29;20043;-72
2022/06/30 02:38:34;;;;;;;5.28;4.78;;;18.90;99.90;;;;;;4921744;29;20435;-73
2022/06/30 02:41:00;;;;;;;4.47;4.03;;;18.90;99.90;;;;;;4918333;29;20062;-73
2022/06/30 02:43:25;;;;;;;4.78;4.38;;;18.90;99.90;;;;;;4914542;29;20051;-74
2022/06/30 02:45:51;;;;;;;4.95;4.07;;;18.80;99.90;;;;;;4919691;29;21108;-72
2022/06/30 02:48:18;;;;;;;6.95;5.30;;;18.80;99.90;;;;;;4912184;29;20123;-72
2022/06/30 02:50:45;;;;;;;6.15;5.20;;;18.80;99.90;;;;;;4909224;29;20155;-73
2022/06/30 02:53:11;;;;;;;5.13;4.65;;;18.80;99.90;;;;;;4925505;29;20051;-72
2022/06/30 02:55:37;;;;;;;6.22;4.97;;;18.70;99.90;;;;;;4924734;28;20087;-72
2022/06/30 02:58:03;;;;;;;4.38;3.97;;;18.70;99.90;;;;;;4913197;29;20085;-72
2022/06/30 03:00:29;;;;;;;5.60;5.03;;;18.60;99.90;;;;;;4913296;29;20040;-75
2022/06/30 03:02:57;;;;;;;6.30;5.28;;;18.60;99.90;;;;;;4921025;29;20056;-72
2022/06/30 03:05:23;;;;;;;7.93;4.95;;;18.60;99.90;;;;;;4923028;28;20114;-73
2022/06/30 03:07:49;;;;;;;5.88;4.50;;;18.60;99.90;;;;;;4925799;29;20143;-72
2022/06/30 03:10:15;;;;;;;6.07;5.03;;;18.50;99.90;;;;;;4916820;29;20574;-73
2022/06/30 03:12:40;;;;;;;4.22;3.78;;;18.60;99.90;;;;;;4916437;29;20096;-75
2022/06/30 03:15:06;;;;;;;5.03;4.35;;;18.50;99.90;;;;;;4917442;29;20662;-74
2022/06/30 03:17:33;;;;;;;4.93;4.43;;;18.50;99.90;;;;;;4921128;29;20043;-73
2022/06/30 03:19:58;;;;;;;7.45;5.28;;;18.40;99.90;;;;;;4917392;29;20050;-72
2022/06/30 03:22:24;;;;;;;5.68;4.65;;;18.40;99.90;;;;;;4924431;29;20051;-72
2022/06/30 03:24:50;;;;;;;5.35;4.85;;;18.40;99.90;;;;;;4921367;28;20150;-73
2022/06/30 03:27:15;;;;;;;7.07;5.22;;;18.30;99.90;;;;;;4919501;28;20489;-73
2022/06/30 03:29:41;;;;;;;6.32;4.85;;;18.30;99.90;;;;;;4920741;29;20850;-72
2022/06/30 03:32:07;;;;;;;6.53;5.43;;;18.20;99.90;;;;;;4905797;29;20054;-73
2022/06/30 03:34:32;;;;;;;6.47;5.47;;;18.20;99.90;;;;;;4912221;29;20088;-74
2022/06/30 03:36:58;;;;;;;7.20;5.07;;;18.20;99.90;;;;;;4919352;28;20086;-72
2022/06/30 03:39:24;;;;;;;5.93;5.35;;;18.10;99.90;;;;;;4905156;29;20063;-73
2022/06/30 03:41:49;;;;;;;5.47;4.95;;;18.10;99.90;;;;;;4911492;29;20059;-74
2022/06/30 03:44:15;;;;;;;6.25;5.22;;;18.20;99.90;;;;;;4913844;28;20392;-73
2022/06/30 03:46:41;;;;;;;5.28;4.45;;;18.10;99.90;;;;;;4912750;29;20051;-72
2022/06/30 03:49:07;;;;;;;5.38;4.65;;;18.10;99.90;;;;;;4918079;29;20234;-75
2022/06/30 03:51:32;;;;;;;6.20;4.57;;;18.10;99.90;;;;;;4912479;29;20059;-72
2022/06/30 03:53:58;;;;;;;8.10;5.07;;;18.00;99.90;;;;;;4918761;29;20046;-72
2022/06/30 03:56:24;;;;;;;6.90;5.07;;;18.10;99.90;;;;;;4921378;29;20055;-72
2022/06/30 03:58:50;;;;;;;7.32;4.90;;;18.10;99.90;;;;;;4917233;28;20551;-75
2022/06/30 04:01:16;;;;;;;5.45;4.95;;;18.10;99.90;;;;;;4924839;29;20056;-75
2022/06/30 04:03:41;;;;;;;5.57;4.97;;;18.10;99.90;;;;;;4917348;29;20529;-72
2022/06/30 04:06:07;;;;;;;6.75;5.50;;;18.10;99.90;;;;;;4911158;29;20074;-73
2022/06/30 04:08:33;;;;;;;5.78;5.18;;;18.10;99.90;;;;;;4921107;29;20043;-75
2022/06/30 04:10:58;;;;;;;5.32;4.60;;;18.60;99.90;;;;;;4916159;28;20146;-72
2022/06/30 04:13:24;;;;;;;5.78;5.20;;;18.10;99.90;;;;;;4916150;29;20060;-72
2022/06/30 04:15:50;;;;;;;5.78;4.22;;;18.10;99.90;;;;;;4924883;29;20083;-72
2022/06/30 04:18:15;;;;;;;5.65;4.90;;;18.10;99.90;;;;;;4920040;29;20168;-72
2022/06/30 04:20:41;;;;;;;6.20;4.60;;;18.10;99.90;;;;;;4913973;29;20071;-72
2022/06/30 04:23:07;;;;;;;6.10;5.15;;;18.20;99.90;;;;;;4923610;29;20055;-74
2022/06/30 04:25:32;;;;;;;6.03;4.30;;;18.20;99.90;;;;;;4914895;28;20094;-71
2022/06/30 04:28:00;;;;;;;5.25;4.75;;;18.20;99.90;;;;;;4927473;29;20656;-72
2022/06/30 04:33:10;;;;;;;6.70;4.93;;;18.30;99.90;;;;;;4915670;29;20054;-72
2022/06/30 04:35:36;;;;;;;5.25;4.82;;;18.30;99.90;;;;;;4927356;29;20156;-74
2022/06/30 04:38:03;;;;;;;6.82;5.13;;;18.30;99.90;;;;;;4928108;28;20051;-74
2022/06/30 04:43:13;;;;;;;7.10;4.97;;;18.40;99.90;;;;;;4919668;29;20466;-72
2022/06/30 04:45:39;;;;;;;7.10;4.63;;;18.40;99.90;;;;;;4916041;28;20057;-72
2022/06/30 04:48:05;;;;;;;6.70;5.38;;;18.40;99.90;;;;;;4912574;29;20054;-72
2022/06/30 04:50:31;;;;;;;6.07;5.15;;;18.40;99.90;;;;;;4913440;29;20752;-72
2022/06/30 04:52:57;;;;;;;6.15;5.55;;;18.50;99.90;;;;;;4915232;29;20043;-71
2022/06/30 04:55:23;;;;;;;6.07;5.47;;;18.50;99.90;;;;;;4922382;29;20218;-72
2022/06/30 04:57:48;;;;;;;5.63;5.00;;;18.50;99.90;;;;;;4910450;29;20055;-72
2022/06/30 05:00:14;;;;;;;6.63;5.40;;;18.50;99.90;;;;;;4928101;28;20059;-72
2022/06/30 05:02:40;;;;;;;6.10;5.20;;;18.60;99.90;;;;;;4915433;29;20444;-75
2022/06/30 05:05:06;;;;;;;5.68;4.60;;;18.70;99.90;;;;;;4925396;28;20048;-74
2022/06/30 05:07:32;;;;;;;5.88;4.50;;;18.80;99.90;;;;;;4911213;29;20047;-72
2022/06/30 05:09:58;;;;;;;7.72;4.60;;;18.80;99.90;;;;;;4906782;29;20116;-74
2022/06/30 05:12:23;;;;;;;8.23;5.55;;;18.90;99.90;;;;;;4919293;29;20050;-72
2022/06/30 05:14:49;;;;;;;5.82;4.68;;;18.90;99.90;;;;;;4904249;29;20059;-74
2022/06/30 05:17:15;;;;;;;7.43;5.65;;;18.90;99.90;;;;;;4913358;29;20051;-71
2022/06/30 05:19:41;;;;;;;8.48;5.53;;;18.90;99.90;;;;;;4918926;28;20155;-72
2022/06/30 05:22:07;;;;;;;7.10;5.07;;;19.00;99.90;;;;;;4919224;29;20039;-72
2022/06/30 05:27:17;;;;;;;7.60;4.80;;;19.00;99.90;;;;;;4918049;29;21428;-72
2022/06/30 05:29:43;;;;;;;5.88;5.30;;;19.00;99.90;;;;;;4922511;28;20059;-75
2022/06/30 05:32:09;;;;;;;7.13;4.55;;;19.10;99.90;;;;;;4913515;29;20493;-72
2022/06/30 05:34:35;;;;;;;6.43;5.15;;;19.20;99.90;;;;;;4917969;29;20051;-73
2022/06/30 05:37:02;;;;;;;6.00;5.40;;;19.20;99.90;;;;;;4913748;29;20135;-72
2022/06/30 05:39:28;;;;;;;5.68;4.95;;;19.30;99.90;;;;;;4910869;29;20161;-74
2022/06/30 05:41:54;;;;;;;5.65;4.90;;;19.40;99.90;;;;;;4922180;28;20135;-72
2022/06/30 05:44:20;;;;;;;6.40;5.80;;;19.50;99.90;;;;;;4922732;29;20061;-74
2022/06/30 05:46:45;;;;;;;7.32;5.65;;;19.60;99.90;;;;;;4916137;29;20044;-74
2022/06/30 05:49:11;;;;;;;7.80;5.95;;;19.70;99.90;;;;;;4920979;29;20059;-72
2022/06/30 05:51:37;;;;;;;8.77;6.30;;;19.70;99.90;;;;;;4916123;28;20147;-72
2022/06/30 05:54:03;;;;;;;6.03;5.40;;;19.80;99.90;;;;;;4908467;29;20056;-73
2022/06/30 05:56:29;;;;;;;8.40;5.72;;;20.00;99.90;;;;;;4916861;28;20055;-74
2022/06/30 05:58:54;;;;;;;7.05;4.72;;;20.10;99.90;;;;;;4936031;28;20051;-72
2022/06/30 06:01:20;;;;;;;6.40;5.25;;;20.20;99.90;;;;;;4925107;28;20736;-73
2022/06/30 06:03:46;;;;;;;5.82;5.32;;;20.40;99.90;;;;;;4922693;29;20802;-75
2022/06/30 06:06:12;;;;;;;5.90;5.25;;;20.50;99.90;;;;;;4913690;29;20104;-73
2022/06/30 06:08:38;;;;;;;6.07;5.47;;;20.70;99.90;;;;;;4919257;29;20170;-72
2022/06/30 06:11:04;;;;;;;7.10;4.78;;;20.80;99.90;;;;;;4916380;29;20050;-75
2022/06/30 06:13:29;;;;;;;5.70;5.00;;;21.00;99.90;;;;;;4909735;29;20126;-72
2022/06/30 06:15:55;;;;;;;7.47;5.57;;;21.10;99.90;;;;;;4920043;29;20123;-72
2022/06/30 06:18:21;;;;;;;6.32;5.47;;;21.40;99.90;;;;;;4915403;29;20048;-72
2022/06/30 06:20:46;;;;;;;5.70;5.20;;;21.70;99.90;;;;;;4910880;28;20052;-74
2022/06/30 06:23:12;;;;;;;5.68;4.13;;;22.30;99.90;;;;;;4912821;29;20047;-75
2022/06/30 06:25:38;;;;;;;6.40;5.07;;;23.50;99.90;;;;;;4906922;29;20524;-73
2022/06/30 06:30:48;;;;;;;5.20;4.55;;;25.40;99.90;;;;;;4906736;29;20074;-74
2022/06/30 06:33:13;;;;;;;4.93;4.40;;;26.20;99.60;;;;;;4922728;29;20079;-76
2022/06/30 06:35:39;;;;;;;5.20;4.55;;;26.70;98.10;;;;;;4919364;29;20060;-72
2022/06/30 06:38:05;;;;;;;5.75;4.40;;;27.10;96.90;;;;;;4922297;29;20154;-74
2022/06/30 06:40:31;;;;;;;5.05;4.55;;;27.40;96.20;;;;;;4913555;29;20056;-73
2022/06/30 06:42:56;;;;;;;5.80;4.80;;;27.70;95.70;;;;;;4918033;29;20047;-74
2022/06/30 06:45:22;;;;;;;7.32;4.80;;;27.90;94.70;;;;;;4918840;29;20055;-74
2022/06/30 06:47:48;;;;;;;5.07;4.57;;;28.20;94.40;;;;;;4911722;29;20040;-76
2022/06/30 06:50:14;;;;;;;6.88;4.65;;;28.60;94.30;;;;;;4914834;29;20058;-74
2022/06/30 06:52:39;;;;;;;6.28;4.95;;;28.80;93.00;;;;;;4917726;29;20044;-74
2022/06/30 06:55:06;;;;;;;7.00;4.53;;;28.70;92.80;;;;;;4913599;29;20482;-74
2022/06/30 06:57:37;;;;;;;4.65;3.88;;;28.80;92.30;;;;;;4916568;29;20788;-74
2022/06/30 07:00:12;;;;;;;5.25;4.53;;;29.20;92.10;;;;;;4913292;29;20099;-75
2022/06/30 07:02:38;;;;;;;5.75;4.88;;;29.60;91.90;;;;;;4925645;29;20065;-76
2022/06/30 07:05:05;;;;;;;5.00;4.18;;;29.70;91.70;;;;;;4912091;29;20911;-74
2022/06/30 07:07:31;;;;;;;5.28;4.78;;;30.10;91.40;;;;;;4923280;28;20055;-72
2022/06/30 07:09:57;;;;;;;5.15;4.60;;;30.20;91.00;;;;;;4910698;29;20047;-74
2022/06/30 07:12:25;;;;;;;5.45;4.95;;;30.10;90.80;;;;;;4906926;29;20487;-74
2022/06/30 07:14:51;;;;;;;4.90;4.50;;;30.10;90.60;;;;;;4910522;29;20051;-72
2022/06/30 07:17:17;;;;;;;5.95;3.92;;;30.00;90.50;;;;;;4911568;29;20086;-73
2022/06/30 07:19:42;;;;;;;4.05;3.75;;;30.40;90.70;;;;;;4910654;29;20756;-72
2022/06/30 07:22:08;;;;;;;4.45;4.05;;;30.50;90.60;;;;;;4916967;29;20056;-72
2022/06/30 07:24:34;;;;;;;5.85;4.72;;;30.80;90.50;;;;;;4904870;29;20048;-76
2022/06/30 07:27:00;;;;;;;5.30;4.75;;;31.00;89.80;;;;;;4915491;28;20066;-75
2022/06/30 07:29:26;;;;;;;5.07;4.22;;;30.90;89.20;;;;;;4909753;29;20071;-73
2022/06/30 07:31:53;;;;;;;4.68;4.15;;;31.00;88.40;;;;;;4908206;29;20052;-73
2022/06/30 07:34:19;;;;;;;5.50;4.53;;;31.30;88.00;;;;;;4904759;29;20055;-73
2022/06/30 07:36:45;;;;;;;4.47;3.97;;;31.40;86.70;;;;;;4912740;29;20430;-75
2022/06/30 07:39:11;;;;;;;5.00;4.50;;;31.50;86.60;;;;;;4908193;29;20047;-72
2022/06/30 07:41:37;;;;;;;5.15;4.55;;;31.70;85.20;;;;;;4911768;29;20050;-74
2022/06/30 07:44:03;;;;;;;5.30;4.70;;;31.50;85.60;;;;;;4908759;28;20039;-71
2022/06/30 07:46:29;;;;;;;6.88;4.78;;;31.70;85.80;;;;;;4905264;29;20044;-72
2022/06/30 07:48:54;;;;;;;4.75;4.35;;;31.70;85.20;;;;;;4907188;29;20047;-72
2022/06/30 07:51:20;;;;;;;5.32;4.82;;;32.10;85.00;;;;;;4912104;29;20059;-72
2022/06/30 07:53:47;;;;;;;5.10;4.60;;;32.30;84.10;;;;;;4914535;29;20055;-74
2022/06/30 07:56:13;;;;;;;9.93;5.00;;;32.20;83.60;;;;;;4916340;29;20540;-72
2022/06/30 07:58:39;;;;;;;5.45;4.82;;;32.30;83.70;;;;;;4918926;29;20047;-75
2022/06/30 08:01:05;;;;;;;5.80;4.53;;;32.50;83.10;;;;;;4919022;28;20593;-72
2022/06/30 08:03:31;;;;;;;5.80;5.00;;;32.50;83.00;;;;;;4923058;29;20106;-72
2022/06/30 08:05:56;;;;;;;7.25;5.10;;;32.70;82.80;;;;;;4913235;29;20051;-72
2022/06/30 08:08:22;;;;;;;6.63;5.35;;;32.70;82.70;;;;;;4906350;29;20056;-72
2022/06/30 08:10:48;;;;;;;5.43;4.90;;;32.80;82.70;;;;;;4907951;29;20670;-71
2022/06/30 08:13:14;;;;;;;6.13;5.53;;;32.80;82.90;;;;;;4918538;29;20055;-70
2022/06/30 08:15:40;;;;;;;6.07;5.47;;;33.00;82.40;;;;;;4927076;29;20126;-75
2022/06/30 08:18:07;;;;;;;5.47;4.93;;;32.90;82.20;;;;;;4923385;28;20058;-72
2022/06/30 08:20:33;;;;;;;7.85;5.20;;;33.30;82.40;;;;;;4916610;29;20043;-70
2022/06/30 08:22:59;;;;;;;9.90;5.63;;;33.50;81.90;;;;;;4920319;29;20110;-71
2022/06/30 08:25:25;;;;;;;6.13;4.70;;;33.50;81.40;;;;;;4918174;29;20079;-71
2022/06/30 08:27:51;;;;;;;5.78;5.05;;;33.10;81.60;;;;;;4919777;29;20099;-71
2022/06/30 08:30:17;;;;;;;6.15;5.28;;;33.10;82.10;;;;;;4930864;29;20238;-73
2022/06/30 08:32:43;;;;;;;6.63;5.40;;;32.70;82.40;;;;;;4909508;29;20097;-74
2022/06/30 08:35:09;;;;;;;7.00;5.43;;;32.90;82.40;;;;;;4901175;29;20880;-72
2022/06/30 08:37:35;;;;;;;6.57;5.68;;;32.70;82.60;;;;;;4902136;29;20091;-74
2022/06/30 08:42:46;;;;;;;7.32;5.88;;;32.70;82.80;;;;;;4902154;29;20487;-73
2022/06/30 08:45:13;;;;;;;5.43;4.90;;;32.70;82.60;;;;;;4908862;29;20563;-73
2022/06/30 08:47:40;;;;;;;5.18;4.60;;;33.00;82.70;;;;;;4918889;29;20044;-72
2022/06/30 08:50:08;;;;;;;7.05;5.85;;;33.10;82.50;;;;;;4924002;28;20119;-72
2022/06/30 08:52:40;;;;;;;7.30;5.63;;;33.20;82.00;;;;;;4926679;29;20069;-76
2022/06/30 08:55:08;;;;;;;8.32;6.18;;;33.40;80.20;;;;;;4933901;28;20145;-76
2022/06/30 08:57:34;;;;;;;5.60;5.20;;;33.40;81.10;;;;;;4919935;29;20043;-76
2022/06/30 09:00:00;;;;;;;6.80;5.88;;;33.30;81.80;;;;;;4919175;29;20099;-75
2022/06/30 09:02:25;;;;;;;6.05;5.53;;;33.70;81.30;;;;;;4918673;29;20495;-74
2022/06/30 09:04:51;;;;;;;8.38;6.32;;;33.50;81.30;;;;;;4925761;28;20048;-81
2022/06/30 09:07:17;;;;;;;7.20;5.88;;;33.50;81.50;;;;;;4925370;29;20456;-81
2022/06/30 09:09:42;;;;;;;6.65;6.05;;;33.70;81.30;;;;;;4936886;28;20118;-76
2022/06/30 09:12:16;;;;;;;7.10;6.45;;;33.90;81.60;;;;;;4917584;28;20040;-78
2022/06/30 09:14:45;;;;;;;5.78;5.28;;;34.00;80.40;;;;;;4922896;29;20162;-74
2022/06/30 09:17:23;;;;;;;6.18;5.65;;;33.50;81.50;;;;;;4917731;29;20155;-78
2022/06/30 09:19:52;;;;;;;8.77;6.20;;;33.50;80.20;;;;;;4923219;29;20689;-77
2022/06/30 09:22:18;;;;;;;7.20;6.50;;;33.80;81.50;;;;;;4917746;29;20055;-77
2022/06/30 09:24:43;;;;;;;7.38;6.45;;;33.80;81.80;;;;;;4918759;29;20059;-78
2022/06/30 09:27:19;;;;;;;9.77;6.93;;;33.70;80.70;;;;;;4936192;28;20063;-78
2022/06/30 09:29:54;;;;;;;6.55;5.88;;;33.60;79.90;;;;;;4935785;28;20069;-79
2022/06/30 09:32:20;;;;;;;10.18;6.43;;;33.80;80.20;;;;;;4912574;29;20095;-78
2022/06/30 09:34:51;;;;;;;7.85;5.82;;;33.80;79.80;;;;;;4919911;29;20162;-81
2022/06/30 09:37:22;;;;;;;7.15;6.45;;;33.90;79.40;;;;;;4913634;29;20543;-77
2022/06/30 09:39:48;;;;;;;8.65;7.03;;;33.80;79.00;;;;;;4907763;29;21203;-79
2022/06/30 09:42:20;;;;;;;6.70;6.10;;;33.90;79.60;;;;;;4915490;29;20090;-76
2022/06/30 09:44:49;;;;;;;7.05;6.05;;;33.60;79.90;;;;;;4910792;29;20047;-82
2022/06/30 09:47:17;;;;;;;7.78;7.07;;;32.90;81.50;;;;;;4914001;29;20047;-78
2022/06/30 09:49:47;;;;;;;7.20;6.47;;;32.90;81.50;;;;;;4907805;29;20055;-78
2022/06/30 09:52:24;;;;;;;7.57;6.88;;;33.00;81.00;;;;;;4915452;29;20199;-78
2022/06/30 09:55:06;;;;;;;6.88;6.10;;;32.90;79.60;;;;;;4906184;29;20161;-79
2022/06/30 09:57:41;;;;;;;6.88;6.20;;;33.20;80.20;;;;;;4913793;29;20059;-76
2022/06/30 10:00:13;;;;;;;7.63;5.88;;;33.20;80.40;;;;;;4911689;29;20154;-76
2022/06/30 10:02:45;;;;;;;7.05;6.43;;;33.10;82.10;;;;;;4916592;29;20056;-78
2022/06/30 10:05:13;;;;;;;6.60;6.00;;;33.00;80.80;;;;;;4913734;29;20044;-77
2022/06/30 10:07:39;;;;;;;7.15;6.15;;;33.40;80.80;;;;;;4913916;29;20036;-80
2022/06/30 10:10:07;;;;;;;7.00;6.30;;;33.50;80.10;;;;;;4894190;29;20079;-79
2022/06/30 10:12:34;;;;;;;7.50;6.90;;;33.40;80.30;;;;;;4925937;28;20071;-78
2022/06/30 10:15:00;;;;;;;8.30;7.50;;;33.30;80.10;;;;;;4915186;29;20055;-77
2022/06/30 10:17:31;;;;;;;8.70;7.10;;;33.40;80.20;;;;;;4907409;29;20048;-77
2022/06/30 10:19:57;;;;;;;7.35;6.75;;;32.90;80.30;;;;;;4921214;29;20052;-76
2022/06/30 10:22:25;;;;;;;7.97;7.18;;;33.20;80.30;;;;;;4913389;29;20103;-74
2022/06/30 10:24:53;;;;;;;6.07;5.57;;;33.20;80.20;;;;;;4915432;29;20126;-75
2022/06/30 10:27:20;;;;;;;8.15;6.28;;;32.90;80.20;;;;;;4908410;29;20071;-78
2022/06/30 10:30:06;;;;;;;7.50;6.30;;;33.00;80.40;;;;;;4914784;29;20159;-79
2022/06/30 10:32:51;;;;;;;8.15;6.80;;;33.20;80.60;;;;;;4915754;29;20043;-77
2022/06/30 10:35:38;;;;;;;6.63;6.13;;;33.30;80.40;;;;;;4904920;29;20694;-75
2022/06/30 10:38:30;;;;;;;8.27;7.00;;;33.40;78.60;;;;;;4908109;29;20126;-77
2022/06/30 10:41:13;;;;;;;7.22;6.45;;;33.20;79.30;;;;;;4907947;29;20056;-78
2022/06/30 10:44:03;;;;;;;8.05;6.18;;;33.30;77.80;;;;;;4923675;29;20155;-78
2022/06/30 10:46:56;;;;;;;7.90;6.60;;;33.00;80.20;;;;;;4920953;29;20055;-81
2022/06/30 10:49:27;;;;;;;8.18;6.25;;;33.30;79.20;;;;;;4913791;29;20059;-79
2022/06/30 10:52:24;;;;;;;7.65;6.93;;;32.80;79.80;;;;;;4920032;29;20458;-79
2022/06/30 10:54:59;;;;;;;9.32;7.55;;;32.40;79.60;;;;;;4914833;29;20476;-77
2022/06/30 10:57:25;;;;;;;8.60;7.30;;;32.00;79.10;;;;;;4928656;28;20058;-80
2022/06/30 10:59:50;;;;;;;7.75;6.95;;;31.80;80.30;;;;;;4915107;29;20043;-77
2022/06/30 11:02:16;;;;;;;8.32;7.43;;;31.70;80.90;;;;;;4926490;29;20065;-79
2022/06/30 11:04:50;;;;;;;8.40;7.13;;;31.60;81.00;;;;;;4929109;29;20047;-80
2022/06/30 11:07:21;;;;;;;8.35;7.05;;;31.50;80.70;;;;;;4916434;29;20677;-81
2022/06/30 11:09:47;;;;;;;7.68;5.80;;;31.50;81.70;;;;;;4917315;29;20048;-85
2022/06/30 11:12:36;;;;;;;6.68;6.07;;;32.00;82.20;;;;;;4918569;29;20058;-81
2022/06/30 11:15:03;;;;;;;9.27;7.95;;;32.70;83.30;;;;;;4920114;29;20052;-78
2022/06/30 11:17:30;;;;;;;10.80;7.35;;;32.80;79.50;;;;;;4911692;29;20056;-83
2022/06/30 11:20:14;;;;;;;9.02;6.57;;;32.70;78.90;;;;;;4915864;29;20052;-80
2022/06/30 11:22:41;;;;;;;7.28;6.53;;;32.70;80.50;;;;;;4919432;29;20199;-80
2022/06/30 11:28:03;;;;;;;9.60;7.03;;;32.60;79.60;;;;;;4910812;29;20846;-78
2022/06/30 11:30:33;;;;;;;8.13;7.30;;;32.30;79.40;;;;;;4913950;29;20405;-80
2022/06/30 11:32:59;;;;;;;8.38;7.43;;;31.80;80.00;;;;;;4913620;29;20367;-79
2022/06/30 11:35:29;;;;;;;10.27;7.78;;;31.10;80.10;;;;;;4914600;29;20048;-78
2022/06/30 11:37:55;;;;;;;8.10;7.32;;;30.80;81.10;;;;;;4912239;29;20043;-77
2022/06/30 11:40:21;;;;;;;13.70;7.78;;;30.40;81.80;;;;;;4918578;29;20094;-79
2022/06/30 11:42:46;;;;;;;8.40;7.50;;;30.30;82.70;;;;;;4917925;29;20142;-82
2022/06/30 11:45:20;;;;;;;7.85;7.15;;;30.20;81.90;;;;;;4917017;29;20115;-79
2022/06/30 11:48:03;;;;;;;8.15;7.35;;;30.10;82.50;;;;;;4917826;29;20039;-79
2022/06/30 11:50:29;;;;;;;8.05;7.10;;;30.30;82.60;;;;;;4911013;29;20091;-78
2022/06/30 11:52:58;;;;;;;9.85;7.90;;;30.40;82.00;;;;;;4917542;29;20063;-75
2022/06/30 11:55:25;;;;;;;9.35;7.85;;;30.50;81.70;;;;;;4916206;29;20062;-74
2022/06/30 11:57:51;;;;;;;6.82;6.13;;;30.50;81.90;;;;;;4905673;29;20151;-73
2022/06/30 12:00:20;;;;;;;6.22;5.60;;;30.70;82.60;;;;;;4916313;29;20892;-72
2022/06/30 12:02:47;;;;;;;5.70;5.30;;;30.80;81.90;;;;;;4905091;29;20139;-75
2022/06/30 12:05:17;;;;;;;7.30;6.43;;;30.90;81.50;;;;;;4911439;29;20280;-76
2022/06/30 12:07:44;;;;;;;7.78;7.13;;;30.70;81.70;;;;;;4905435;29;20157;-74
2022/06/30 12:10:12;;;;;;;6.65;5.70;;;30.80;81.60;;;;;;4904891;29;20115;-76
2022/06/30 12:12:38;;;;;;;6.40;5.68;;;31.00;80.20;;;;;;4905942;29;20051;-78
2022/06/30 12:15:10;;;;;;;10.95;6.65;;;31.30;80.30;;;;;;4900342;29;20080;-74
2022/06/30 12:17:38;;;;;;;6.82;6.13;;;31.60;80.40;;;;;;4902739;29;20122;-77
2022/06/30 12:20:06;;;;;;;8.15;7.20;;;31.90;80.20;;;;;;4903375;29;20404;-76
2022/06/30 12:22:34;;;;;;;6.47;5.97;;;32.10;80.20;;;;;;4906112;29;20051;-73
2022/06/30 12:25:00;;;;;;;6.50;5.38;;;32.30;79.60;;;;;;4907286;29;20241;-77
2022/06/30 12:27:28;;;;;;;5.18;4.68;;;32.40;78.10;;;;;;4898571;29;20068;-76
2022/06/30 12:30:03;;;;;;;8.52;7.70;;;32.50;78.90;;;;;;4902776;29;20059;-74
2022/06/30 12:32:29;;;;;;;6.65;5.65;;;32.90;78.30;;;;;;4910222;29;20050;-73
2022/06/30 12:35:07;;;;;;;7.35;6.35;;;32.80;79.70;;;;;;4908178;29;20052;-75
2022/06/30 12:37:43;;;;;;;6.30;5.70;;;32.50;77.50;;;;;;4906038;29;20387;-78
2022/06/30 12:40:12;;;;;;;7.20;5.53;;;32.20;77.20;;;;;;4904381;29;20911;-77
2022/06/30 12:42:46;;;;;;;6.93;5.13;;;32.20;78.00;;;;;;4905238;29;20181;-75
2022/06/30 12:45:33;;;;;;;9.85;5.78;;;32.30;79.00;;;;;;4908787;29;21048;-71
2022/06/30 12:47:59;;;;;;;6.82;5.30;;;32.30;78.10;;;;;;4906595;29;20051;-74
2022/06/30 12:50:24;;;;;;;7.85;5.47;;;31.80;78.40;;;;;;4903465;29;20055;-76
2022/06/30 12:52:50;;;;;;;8.40;4.97;;;31.50;79.20;;;;;;4909278;29;20044;-77
2022/06/30 12:55:16;;;;;;;5.60;5.10;;;31.30;78.70;;;;;;4905058;29;20062;-77
2022/06/30 12:57:47;;;;;;;7.60;5.95;;;31.70;79.30;;;;;;4905951;29;20047;-73
2022/06/30 13:00:14;;;;;;;4.65;4.10;;;31.60;76.90;;;;;;4907257;29;20044;-74
2022/06/30 13:02:39;;;;;;;8.13;5.57;;;31.50;79.40;;;;;;4916577;29;20154;-77
2022/06/30 13:05:12;;;;;;;6.38;5.78;;;31.40;79.00;;;;;;4922398;29;20073;-72
2022/06/30 13:07:38;;;;;;;5.72;5.10;;;31.50;78.80;;;;;;4920071;29;20518;-77
2022/06/30 13:10:05;;;;;;;5.80;5.18;;;31.70;79.40;;;;;;4910990;29;20126;-74